Time;durP1;ratioP1;P1;durP2;ratioP2;P2;SDS_P1;SDS_P2;PMS_P1;PMS_P2;Temp;Humidity;BMP_temperature;BMP_pressure;BME280_temperature;BME280_humidity;BME280_pressure;Samples;Min_cycle;Max_cycle;Signal;HPM_P1;HPM_P2
2023/04/16 00:01:25;;;;;;;15.18;5.68;;;11.60;99.90;;;11.81;79.96;102169.53;5054387;28;20543;-71
2023/04/16 00:03:54;;;;;;;17.95;6.03;;;11.60;99.90;;;11.68;80.02;102168.50;5055624;28;20041;-72
2023/04/16 00:06:23;;;;;;;16.80;5.35;;;11.50;99.90;;;11.73;79.87;102171.19;5055658;28;20037;-71
2023/04/16 00:08:53;;;;;;;11.82;5.40;;;11.50;99.90;;;11.58;80.09;102168.31;5055551;28;20405;-71
2023/04/16 00:11:22;;;;;;;15.77;5.75;;;11.40;99.90;;;11.76;80.06;102179.19;5055513;28;20047;-71
2023/04/16 00:13:50;;;;;;;12.65;5.38;;;11.50;99.90;;;11.82;80.15;102178.38;5055117;28;20044;-71
2023/04/16 00:16:18;;;;;;;13.52;5.53;;;11.60;99.90;;;11.81;79.93;102179.25;5054192;28;20073;-71
2023/04/16 00:18:47;;;;;;;9.63;5.10;;;11.60;99.90;;;11.86;79.65;102177.53;5055614;28;20051;-71
2023/04/16 00:21:15;;;;;;;19.58;5.40;;;11.70;99.90;;;11.68;80.71;102179.09;5055066;28;20041;-71
2023/04/16 00:23:43;;;;;;;16.92;5.30;;;11.50;99.90;;;11.76;80.29;102180.09;5055293;28;20154;-71
2023/04/16 00:26:13;;;;;;;19.13;5.90;;;11.50;99.90;;;11.73;80.58;102168.53;5055268;28;20069;-71
2023/04/16 00:28:44;;;;;;;13.40;5.47;;;11.50;99.90;;;11.78;80.98;102181.00;5053660;28;20065;-72
2023/04/16 00:31:12;;;;;;;16.50;6.20;;;11.50;99.90;;;11.83;80.54;102172.22;5053842;28;20045;-71
2023/04/16 00:33:41;;;;;;;14.98;5.15;;;11.60;99.90;;;11.79;80.30;102166.84;5053812;28;20080;-71
2023/04/16 00:36:10;;;;;;;15.38;5.95;;;11.60;99.90;;;11.77;80.36;102167.69;5053760;28;20049;-71
2023/04/16 00:38:38;;;;;;;17.80;5.50;;;11.60;99.90;;;11.86;80.13;102177.53;5055014;28;20047;-71
2023/04/16 00:41:06;;;;;;;19.13;5.72;;;11.60;99.90;;;11.91;80.27;102171.41;5055019;28;20041;-71
2023/04/16 00:43:36;;;;;;;16.33;6.20;;;11.60;99.90;;;12.03;79.92;102170.66;5053640;28;20045;-71
2023/04/16 00:46:06;;;;;;;17.70;5.50;;;11.80;99.90;;;11.89;79.58;102165.19;5054663;28;20116;-71
2023/04/16 00:48:36;;;;;;;15.85;5.82;;;11.70;99.90;;;11.93;80.04;102168.75;5054567;28;20287;-71
2023/04/16 00:51:06;;;;;;;15.63;5.55;;;11.70;99.90;;;11.97;80.25;102167.94;5054486;28;20132;-71
2023/04/16 00:53:35;;;;;;;15.52;5.82;;;11.70;99.90;;;11.99;79.45;102172.38;5054775;28;20048;-71
2023/04/16 00:56:07;;;;;;;19.42;5.70;;;11.70;99.90;;;11.98;79.34;102177.69;5053398;28;20057;-71
2023/04/16 00:58:37;;;;;;;11.93;5.22;;;11.80;99.90;;;11.68;79.72;102163.19;5054626;28;20043;-72
2023/04/16 01:01:06;;;;;;;17.40;5.20;;;11.60;99.90;;;11.70;79.50;102158.81;5054619;28;20506;-71
2023/04/16 01:03:39;;;;;;;15.05;5.70;;;11.60;99.90;;;11.73;79.99;102176.50;5054549;28;20090;-71
2023/04/16 01:06:08;;;;;;;11.82;5.07;;;11.60;99.90;;;11.69;80.26;102177.34;5053586;28;20464;-72
2023/04/16 01:08:37;;;;;;;13.88;5.35;;;11.50;99.90;;;11.77;80.14;102179.22;5053150;28;20527;-71
2023/04/16 01:11:06;;;;;;;15.13;4.95;;;11.50;99.90;;;11.76;80.12;102177.44;5054355;28;20067;-71
2023/04/16 01:13:38;;;;;;;15.43;5.65;;;11.50;99.90;;;11.85;79.91;102181.03;5069416;28;20041;-71
2023/04/16 01:16:07;;;;;;;14.25;5.25;;;11.60;99.90;;;11.70;79.62;102145.56;5054273;28;20041;-71
2023/04/16 01:18:36;;;;;;;13.43;5.53;;;11.70;99.90;;;11.80;79.95;102186.31;5054210;28;20039;-71
2023/04/16 01:21:06;;;;;;;13.00;5.20;;;11.60;99.90;;;11.77;79.93;102178.31;5052895;28;20480;-71
2023/04/16 01:23:35;;;;;;;13.00;5.28;;;11.50;99.90;;;11.63;80.10;102174.59;5054200;28;20095;-71
2023/04/16 01:26:04;;;;;;;14.82;5.50;;;11.50;99.90;;;11.50;81.18;102173.53;5054072;28;20056;-71
2023/04/16 01:28:32;;;;;;;13.05;5.07;;;11.30;99.90;;;11.58;81.07;102177.16;5054036;28;20140;-71
2023/04/16 01:31:00;;;;;;;14.25;5.38;;;11.30;99.90;;;11.56;80.78;102167.41;5054042;28;20037;-71
2023/04/16 01:33:39;;;;;;;14.52;5.25;;;11.40;99.90;;;11.54;81.07;102172.69;5052727;28;20087;-71
2023/04/16 01:36:09;;;;;;;18.90;5.78;;;11.40;99.90;;;11.59;81.26;102183.38;5069177;28;20052;-71
2023/04/16 01:38:37;;;;;;;13.38;5.75;;;11.40;99.90;;;11.61;81.13;102174.53;5086501;28;20051;-71
2023/04/16 01:41:05;;;;;;;16.95;5.85;;;11.40;99.90;;;11.38;82.16;102181.31;5053797;28;20040;-71
2023/04/16 01:43:35;;;;;;;14.73;5.03;;;11.20;99.90;;;11.29;82.38;102173.25;5052460;28;20044;-71
2023/04/16 01:46:15;;;;;;;13.90;4.97;;;11.20;99.90;;;11.35;82.64;102175.09;5052739;28;20103;-71
2023/04/16 01:48:43;;;;;;;13.52;5.47;;;11.10;99.90;;;11.35;82.47;102172.44;5053665;28;20479;-71
2023/04/16 01:51:13;;;;;;;16.35;5.22;;;11.20;99.90;;;11.25;83.11;102184.69;5053315;28;20033;-71
2023/04/16 01:53:41;;;;;;;11.02;5.10;;;11.00;99.90;;;11.13;83.17;102144.78;5053833;28;20123;-71
2023/04/16 01:56:10;;;;;;;14.00;5.43;;;11.10;99.90;;;11.46;82.88;102192.00;5053209;28;20500;-71
2023/04/16 01:58:38;;;;;;;17.73;5.75;;;11.20;99.90;;;11.52;82.39;102193.00;5052207;28;20084;-71
2023/04/16 02:01:06;;;;;;;17.30;5.90;;;11.20;99.90;;;11.46;82.64;102187.59;5052157;28;20116;-72
2023/04/16 02:03:35;;;;;;;14.48;5.80;;;11.20;99.90;;;11.36;82.69;102187.47;5051595;28;20065;-71
2023/04/16 02:06:04;;;;;;;19.45;6.32;;;11.20;99.90;;;11.35;82.84;102186.59;5052143;28;20045;-71
2023/04/16 02:08:34;;;;;;;17.48;5.82;;;11.10;99.90;;;11.35;82.36;102189.22;5053348;28;20091;-71
2023/04/16 02:11:03;;;;;;;17.17;5.80;;;11.20;99.90;;;11.39;82.29;102196.34;5052019;28;20045;-71
2023/04/16 02:13:31;;;;;;;15.05;6.25;;;11.20;99.90;;;11.26;82.76;102194.41;5052203;28;20041;-71
2023/04/16 02:15:59;;;;;;;13.40;5.45;;;11.10;99.90;;;11.30;82.43;102195.34;5053374;28;20091;-71
2023/04/16 02:18:41;;;;;;;15.65;5.50;;;11.10;99.90;;;11.36;82.15;102198.94;5051934;28;20041;-71
2023/04/16 02:21:10;;;;;;;13.05;5.95;;;11.10;99.90;;;11.03;83.14;102195.84;5051821;28;20040;-71
2023/04/16 02:23:40;;;;;;;20.60;6.43;;;10.90;99.90;;;10.97;83.46;102198.41;5051513;28;20060;-71
2023/04/16 02:26:09;;;;;;;15.90;5.90;;;10.80;99.90;;;11.16;83.28;102202.19;5051839;28;20048;-71
2023/04/16 02:28:38;;;;;;;15.73;5.82;;;10.90;99.90;;;11.05;83.37;102198.50;5051800;28;20080;-71
2023/04/16 02:31:09;;;;;;;17.13;5.88;;;10.80;99.90;;;11.16;83.62;102195.16;5051454;28;20410;-71
2023/04/16 02:33:43;;;;;;;21.60;6.28;;;10.90;99.90;;;10.86;84.29;102199.97;5051751;28;20059;-71
2023/04/16 02:36:12;;;;;;;18.45;6.32;;;10.70;99.90;;;11.08;84.42;102194.13;5085123;28;20505;-71
2023/04/16 02:38:41;;;;;;;15.02;5.70;;;10.80;99.90;;;11.16;83.71;102191.59;5052931;28;20041;-71
2023/04/16 02:41:10;;;;;;;15.07;6.50;;;11.00;99.90;;;11.23;83.74;102196.09;5051613;28;20044;-71
2023/04/16 02:43:38;;;;;;;19.98;6.75;;;11.00;99.90;;;11.28;83.36;102197.09;5068257;28;20048;-71
2023/04/16 02:46:07;;;;;;;14.30;6.35;;;11.10;99.90;;;11.24;83.19;102198.81;5051540;28;20087;-71
2023/04/16 02:48:35;;;;;;;17.70;6.25;;;11.10;99.90;;;11.33;83.13;102200.66;5051778;28;20063;-71
2023/04/16 02:51:04;;;;;;;15.13;6.40;;;11.10;99.90;;;11.41;82.61;102199.91;5052770;28;20062;-71
2023/04/16 02:53:32;;;;;;;15.73;5.88;;;11.20;99.90;;;11.45;82.35;102206.16;5053028;28;20390;-71
2023/04/16 02:56:02;;;;;;;13.90;5.70;;;11.20;99.90;;;11.20;82.30;102196.06;5052720;28;20041;-69
2023/04/16 02:58:30;;;;;;;15.32;6.13;;;11.10;99.90;;;11.27;82.13;102204.13;5051722;28;20048;-69
2023/04/16 03:00:59;;;;;;;14.02;6.40;;;11.00;99.90;;;11.41;82.10;102197.28;5051377;28;20044;-69
2023/04/16 03:03:27;;;;;;;13.07;6.35;;;11.10;99.90;;;11.37;81.81;102200.75;5051386;28;20041;-69
2023/04/16 03:05:56;;;;;;;17.92;6.40;;;11.20;99.90;;;11.34;82.33;102203.34;5051080;28;20083;-68
2023/04/16 03:08:24;;;;;;;14.82;6.10;;;11.10;99.90;;;11.47;81.84;102212.34;5051389;28;20148;-69
2023/04/16 03:10:52;;;;;;;17.70;6.53;;;11.20;99.90;;;11.24;82.78;102203.19;5052930;28;20534;-69
2023/04/16 03:13:22;;;;;;;11.40;5.82;;;11.10;99.90;;;11.24;83.25;102214.69;5051526;28;20103;-68
2023/04/16 03:15:50;;;;;;;16.65;6.18;;;11.00;99.90;;;11.01;83.52;102207.28;5056797;28;20073;-68
2023/04/16 03:18:19;;;;;;;13.90;6.30;;;10.90;99.90;;;11.23;83.43;102204.94;5056500;28;20048;-68
2023/04/16 03:20:52;;;;;;;16.80;6.82;;;11.00;99.90;;;11.06;83.94;102206.47;5055228;28;20083;-69
2023/04/16 03:23:20;;;;;;;15.82;6.65;;;10.80;99.90;;;11.21;84.04;102211.09;5056482;28;20072;-69
2023/04/16 03:25:48;;;;;;;21.00;7.10;;;10.90;99.90;;;11.25;83.63;102205.88;5056375;28;20044;-69
2023/04/16 03:28:18;;;;;;;17.42;6.20;;;11.00;99.90;;;11.09;84.33;102211.78;5054695;28;20068;-69
2023/04/16 03:30:52;;;;;;;20.65;7.28;;;10.80;99.90;;;10.98;84.99;102216.03;5055047;28;20059;-69
2023/04/16 03:33:21;;;;;;;19.77;7.00;;;10.70;99.90;;;11.03;85.15;102201.16;5056298;28;20052;-68
2023/04/16 03:35:58;;;;;;;18.02;6.65;;;10.80;99.90;;;11.15;84.71;102196.00;5071567;28;20072;-69
2023/04/16 03:38:29;;;;;;;16.38;6.38;;;10.90;99.90;;;11.15;84.50;102203.06;5071783;28;20577;-69
2023/04/16 03:40:59;;;;;;;19.33;6.45;;;10.90;99.90;;;11.09;84.58;102203.84;5054780;28;20049;-68
2023/04/16 03:43:31;;;;;;;15.98;6.35;;;10.90;99.90;;;10.83;85.70;102216.72;5055124;28;20446;-69
2023/04/16 03:46:00;;;;;;;15.73;6.63;;;10.70;99.90;;;11.10;85.76;102210.03;5054693;28;20072;-69
2023/04/16 03:48:29;;;;;;;18.77;6.80;;;10.80;99.90;;;10.87;86.54;102212.34;5054749;28;20402;-69
2023/04/16 03:50:58;;;;;;;15.30;6.60;;;10.70;99.90;;;11.05;86.58;102211.75;5054344;28;20045;-69
2023/04/16 03:53:27;;;;;;;15.20;6.35;;;10.80;99.90;;;11.09;86.20;102201.19;5054503;28;20080;-69
2023/04/16 03:55:55;;;;;;;14.18;6.72;;;10.90;99.90;;;11.31;85.92;102213.00;5054449;28;20520;-69
2023/04/16 03:58:24;;;;;;;15.90;6.93;;;11.00;99.90;;;11.41;85.83;102205.22;5054540;28;20049;-68
2023/04/16 04:00:54;;;;;;;19.40;7.55;;;11.20;99.90;;;11.33;85.74;102212.16;5054417;28;20131;-69
2023/04/16 04:03:24;;;;;;;22.27;7.50;;;11.20;99.90;;;11.21;86.29;102209.34;5054386;28;20041;-69
2023/04/16 04:05:54;;;;;;;15.57;6.38;;;11.00;99.90;;;11.33;85.88;102217.47;5054696;28;20063;-69
2023/04/16 04:08:29;;;;;;;18.30;6.50;;;11.10;99.90;;;11.29;85.56;102215.63;5054370;28;20041;-69
2023/04/16 04:10:58;;;;;;;22.67;7.85;;;11.10;99.90;;;11.19;85.84;102208.41;5054244;28;20045;-68
2023/04/16 04:13:27;;;;;;;17.67;7.40;;;11.00;99.90;;;11.16;86.03;102219.00;5055459;28;20041;-69
2023/04/16 04:15:55;;;;;;;16.48;7.25;;;11.00;99.90;;;11.16;86.23;102204.84;5054061;28;20460;-68
2023/04/16 04:18:25;;;;;;;24.52;7.50;;;11.00;99.90;;;11.15;86.47;102208.38;5054162;28;20112;-69
2023/04/16 04:20:53;;;;;;;17.00;6.77;;;10.90;99.90;;;11.20;86.36;102207.56;5055440;28;20385;-69
2023/04/16 04:23:26;;;;;;;24.38;7.38;;;10.90;99.90;;;10.94;86.93;102200.97;5070665;28;20356;-69
2023/04/16 04:25:54;;;;;;;20.30;7.22;;;10.80;99.90;;;11.02;87.37;102207.28;5053018;28;20049;-69
2023/04/16 04:28:23;;;;;;;16.02;7.10;;;10.80;99.90;;;11.26;86.88;102209.41;5053932;28;20497;-69
2023/04/16 04:30:51;;;;;;;14.68;6.88;;;11.00;99.90;;;11.36;86.45;102208.69;5053653;28;20056;-68
2023/04/16 04:33:20;;;;;;;22.17;7.53;;;11.10;99.90;;;11.32;86.43;102206.84;5054090;28;20490;-69
2023/04/16 04:35:50;;;;;;;21.17;7.30;;;11.10;99.90;;;11.43;86.42;102211.44;5053512;28;20059;-69
2023/04/16 04:38:20;;;;;;;16.13;7.13;;;11.20;99.90;;;11.27;86.33;102209.44;5054945;28;20068;-69
2023/04/16 04:40:49;;;;;;;20.33;6.88;;;11.00;99.90;;;11.44;86.39;102215.84;5053721;28;20768;-69
2023/04/16 04:43:19;;;;;;;22.30;7.17;;;11.20;99.90;;;11.44;86.20;102226.44;5053525;28;20047;-69
2023/04/16 04:45:48;;;;;;;21.17;7.60;;;11.20;99.90;;;11.27;86.63;102217.38;5070149;28;20041;-71
2023/04/16 04:48:17;;;;;;;27.97;7.30;;;11.00;99.90;;;11.20;86.71;102217.25;5070167;28;20056;-71
2023/04/16 04:50:48;;;;;;;16.97;6.47;;;11.00;99.90;;;11.30;86.82;102224.47;5053495;28;20049;-71
2023/04/16 04:53:17;;;;;;;20.73;6.90;;;11.10;99.90;;;11.26;87.46;102228.84;5053344;28;20345;-71
2023/04/16 04:55:45;;;;;;;29.13;8.07;;;11.00;99.90;;;11.26;87.76;102228.84;5053420;28;20037;-71
2023/04/16 04:58:14;;;;;;;20.70;6.97;;;11.00;99.90;;;11.20;88.04;102236.69;5054248;28;20486;-71
2023/04/16 05:00:43;;;;;;;24.70;8.38;;;11.00;99.90;;;11.30;87.93;102237.72;5053298;28;20076;-72
2023/04/16 05:03:12;;;;;;;24.63;7.57;;;11.10;99.90;;;11.22;88.64;102234.97;5053307;28;20387;-71
2023/04/16 05:05:41;;;;;;;18.38;6.80;;;11.00;99.90;;;11.08;89.16;102244.44;5054186;28;20091;-71
2023/04/16 05:08:10;;;;;;;22.35;7.45;;;10.90;99.90;;;11.26;89.13;102247.41;5054436;28;20116;-71
2023/04/16 05:10:39;;;;;;;20.05;7.50;;;11.00;99.90;;;11.30;88.82;102238.63;5054185;28;20127;-71
2023/04/16 05:13:07;;;;;;;17.00;6.32;;;11.00;99.90;;;11.24;89.57;102243.84;5054006;28;20079;-71
2023/04/16 05:15:35;;;;;;;19.83;6.95;;;11.00;99.90;;;11.35;89.21;102250.16;5054344;28;20037;-71
2023/04/16 05:18:04;;;;;;;18.05;6.35;;;11.10;99.90;;;11.32;88.99;102250.13;5053952;28;20380;-71
2023/04/16 05:20:32;;;;;;;16.38;6.65;;;11.10;99.90;;;11.30;88.89;102250.97;5054195;28;20049;-71
2023/04/16 05:23:01;;;;;;;24.40;6.40;;;11.10;99.90;;;11.42;88.46;102252.03;5052973;28;20398;-71
2023/04/16 05:25:30;;;;;;;15.05;6.03;;;11.20;99.90;;;11.11;88.87;102257.72;5053889;28;20041;-72
2023/04/16 05:27:59;;;;;;;13.30;5.88;;;11.00;99.90;;;11.29;88.56;102260.66;5053991;28;20542;-71
2023/04/16 05:30:27;;;;;;;16.92;5.80;;;11.10;99.90;;;11.34;88.31;102256.31;5053728;28;20134;-72
2023/04/16 05:32:55;;;;;;;13.10;5.53;;;11.10;99.90;;;11.20;88.90;102257.91;5053776;28;20124;-71
2023/04/16 05:35:24;;;;;;;18.90;6.38;;;11.00;99.90;;;11.33;88.20;102264.25;5053930;28;20120;-71
2023/04/16 05:37:52;;;;;;;17.55;5.82;;;11.10;99.90;;;11.35;88.19;102268.72;5053415;28;20045;-71
2023/04/16 05:40:21;;;;;;;13.95;6.05;;;11.10;99.90;;;11.40;88.13;102271.44;5069265;28;20037;-71
2023/04/16 05:42:50;;;;;;;22.27;6.53;;;11.10;99.90;;;11.16;89.30;102269.31;5053453;28;20409;-71
2023/04/16 05:45:19;;;;;;;15.90;6.10;;;10.90;99.90;;;10.98;89.75;102269.00;5053495;28;20401;-71
2023/04/16 05:47:47;;;;;;;14.55;5.80;;;10.80;99.90;;;11.12;90.30;102272.78;5052389;28;20061;-71
2023/04/16 05:50:16;;;;;;;19.08;6.47;;;10.80;99.90;;;11.27;89.75;102275.66;5053381;28;20040;-71
2023/04/16 05:52:44;;;;;;;24.08;6.53;;;10.90;99.90;;;11.25;89.85;102271.19;5053346;28;20048;-71
2023/04/16 05:55:12;;;;;;;15.52;6.97;;;11.00;99.90;;;11.45;89.16;102281.22;5053232;28;20127;-71
2023/04/16 05:57:41;;;;;;;15.20;6.13;;;11.20;99.90;;;11.42;89.24;102275.88;5053199;28;20055;-71
2023/04/16 06:00:11;;;;;;;21.90;6.60;;;11.20;99.90;;;11.47;88.86;102263.59;5053205;28;20589;-71
2023/04/16 06:02:40;;;;;;;;;;;11.30;99.90;;;11.39;89.02;102283.78;5053888;28;20037;-72
2023/04/16 06:05:09;;;;;;;18.75;6.57;;;11.10;99.90;;;11.38;89.12;102274.03;5052157;28;19920;-71
2023/04/16 06:07:37;;;;;;;13.23;6.28;;;11.20;99.90;;;11.47;89.03;102279.50;5053411;28;20049;-71
2023/04/16 06:10:07;;;;;;;18.55;6.40;;;11.20;99.90;;;11.38;89.17;102271.38;5053076;28;20143;-71
2023/04/16 06:12:36;;;;;;;16.30;6.73;;;11.20;99.90;;;11.50;88.73;102274.22;5053333;28;20068;-71
2023/04/16 06:15:06;;;;;;;15.98;6.57;;;11.30;99.90;;;11.33;89.85;102274.84;5053280;28;20037;-71
2023/04/16 06:17:36;;;;;;;17.35;6.72;;;11.10;99.90;;;11.40;89.66;102277.59;5053403;28;20107;-72
2023/04/16 06:20:06;;;;;;;20.83;6.40;;;11.10;99.90;;;11.45;89.57;102280.34;5068742;28;20076;-73
2023/04/16 06:22:34;;;;;;;20.73;7.38;;;11.20;99.90;;;11.56;89.42;102271.66;5052719;28;20055;-71
2023/04/16 06:25:03;;;;;;;18.40;6.70;;;11.30;99.90;;;11.52;89.08;102293.69;5052756;28;20071;-71
2023/04/16 06:27:31;;;;;;;18.13;7.18;;;11.30;99.90;;;11.17;89.71;102286.97;5052564;28;20128;-71
2023/04/16 06:30:00;;;;;;;15.52;7.15;;;11.00;99.90;;;11.33;89.86;102282.78;5051897;28;20048;-71
2023/04/16 06:32:28;;;;;;;15.48;6.32;;;11.10;99.90;;;11.40;89.31;102297.94;5052842;28;20124;-71
2023/04/16 06:34:58;;;;;;;21.85;7.32;;;11.10;99.90;;;11.47;89.30;102295.41;5052684;28;20483;-72
2023/04/16 06:37:26;;;;;;;18.80;7.20;;;11.20;99.90;;;11.25;89.98;102297.66;5053016;28;20045;-71
2023/04/16 06:39:54;;;;;;;19.90;7.13;;;11.00;99.90;;;11.37;89.91;102298.78;5052485;28;20074;-72
2023/04/16 06:42:23;;;;;;;20.33;7.22;;;11.10;99.90;;;11.35;89.25;102274.00;5052423;28;20495;-71
2023/04/16 06:44:52;;;;;;;16.27;6.50;;;11.20;99.90;;;11.55;88.78;102299.06;5052427;28;20033;-71
2023/04/16 06:47:20;;;;;;;19.95;7.15;;;11.30;99.90;;;11.63;88.59;102307.09;5052370;28;20045;-71
2023/04/16 06:49:48;;;;;;;14.60;6.90;;;11.40;99.90;;;11.71;88.41;102300.19;5050780;28;20098;-71
2023/04/16 06:52:18;;;;;;;17.38;6.15;;;11.50;99.90;;;11.78;88.02;102310.91;5052336;28;20091;-71
2023/04/16 06:54:47;;;;;;;16.27;6.13;;;11.50;99.90;;;11.74;88.03;102300.22;5052317;28;20207;-71
2023/04/16 06:57:16;;;;;;;17.45;7.38;;;11.50;99.90;;;11.81;88.33;102312.69;5052272;28;20462;-72
2023/04/16 06:59:44;;;;;;;19.15;6.60;;;11.50;99.90;;;11.86;88.28;102316.31;5052078;28;20037;-71
2023/04/16 07:02:12;;;;;;;11.38;6.32;;;11.60;99.90;;;11.89;88.20;102304.81;5052188;28;20127;-72
2023/04/16 07:04:41;;;;;;;17.00;6.63;;;11.70;99.90;;;11.83;88.63;102315.38;5051824;28;20048;-71
2023/04/16 07:07:09;;;;;;;15.23;6.60;;;11.60;99.90;;;11.83;88.99;102308.28;5052745;28;20044;-72
2023/04/16 07:09:39;;;;;;;15.30;6.70;;;11.60;99.90;;;11.85;89.20;102314.50;5052454;28;20045;-72
2023/04/16 07:12:08;;;;;;;15.07;6.38;;;11.60;99.90;;;11.82;89.46;102305.63;5052401;28;20065;-73
2023/04/16 07:14:36;;;;;;;16.88;6.88;;;11.60;99.90;;;11.79;89.90;102310.00;5052779;28;20048;-72
2023/04/16 07:17:05;;;;;;;19.05;6.68;;;11.60;99.90;;;11.85;89.82;102308.31;5052010;28;20055;-71
2023/04/16 07:19:34;;;;;;;9.80;6.45;;;11.60;99.90;;;11.90;90.11;102318.13;5051054;28;20048;-72
2023/04/16 07:22:02;;;;;;;16.23;7.07;;;11.60;99.90;;;11.88;90.45;102319.88;5052210;28;20045;-73
2023/04/16 07:24:31;;;;;;;14.73;7.55;;;11.60;99.90;;;11.75;90.41;102286.97;5052106;28;20068;-73
2023/04/16 07:27:01;;;;;;;17.95;7.18;;;11.70;99.90;;;11.96;90.61;102327.91;5052073;28;20135;-72
2023/04/16 07:29:29;;;;;;;16.15;6.90;;;11.70;99.90;;;11.91;90.61;102316.34;5051035;28;20280;-72
2023/04/16 07:31:57;;;;;;;14.95;6.90;;;11.70;99.90;;;11.91;90.58;102324.28;5052519;28;20478;-73
2023/04/16 07:34:26;;;;;;;12.30;6.95;;;11.70;99.90;;;11.82;90.71;102317.13;5052315;28;20041;-72
2023/04/16 07:36:54;;;;;;;13.27;7.18;;;11.70;99.90;;;11.95;90.98;102321.72;5052200;28;20482;-72
2023/04/16 07:39:22;;;;;;;17.05;7.63;;;11.70;99.90;;;11.87;91.27;102323.38;5051342;28;20040;-72
2023/04/16 07:41:51;;;;;;;16.80;7.57;;;11.60;99.90;;;11.84;91.16;102320.69;5051844;28;20033;-70
2023/04/16 07:44:21;;;;;;;17.35;7.25;;;11.60;99.90;;;11.91;91.25;102329.59;5052203;28;20052;-72
2023/04/16 07:46:49;;;;;;;18.05;7.82;;;11.60;99.90;;;11.92;91.35;102337.59;5051998;28;20044;-72
2023/04/16 07:49:18;;;;;;;11.45;6.50;;;11.60;99.90;;;11.87;91.17;102330.44;5050755;28;20049;-73
2023/04/16 07:51:48;;;;;;;15.02;7.25;;;11.60;99.90;;;11.89;91.05;102337.53;5052144;28;20037;-73
2023/04/16 07:54:16;;;;;;;11.80;6.90;;;11.70;99.90;;;11.85;91.23;102343.66;5052000;28;20405;-70
2023/04/16 07:56:45;;;;;;;13.85;7.25;;;11.60;99.90;;;11.90;91.16;102349.06;5052405;28;20159;-72
2023/04/16 07:59:13;;;;;;;13.85;7.00;;;11.60;99.90;;;11.88;91.03;102334.88;5051628;28;20045;-73
2023/04/16 08:01:53;;;;;;;15.95;7.20;;;11.70;99.90;;;11.78;91.03;102344.47;5054248;28;20051;-71
2023/04/16 08:04:24;;;;;;;12.32;7.40;;;11.60;99.90;;;11.59;91.05;102323.84;5055388;28;20407;-72
2023/04/16 08:06:55;;;;;;;11.65;6.60;;;11.50;99.90;;;11.77;91.22;102359.47;5054221;28;20494;-70
2023/04/16 08:09:27;;;;;;;11.90;7.15;;;11.50;99.90;;;11.85;91.09;102350.72;5055490;28;20048;-69
2023/04/16 08:11:55;;;;;;;14.02;7.03;;;11.60;99.90;;;11.84;90.42;102364.88;5055299;28;20486;-70
2023/04/16 08:14:23;;;;;;;14.52;7.70;;;11.60;99.90;;;11.91;90.51;102361.41;5055152;28;20041;-68
2023/04/16 08:16:53;;;;;;;12.32;7.90;;;11.60;99.90;;;11.97;90.11;102357.09;5055075;28;20581;-70
2023/04/16 08:19:21;;;;;;;9.67;6.73;;;11.70;99.90;;;11.77;89.78;102337.38;5055023;28;20037;-72
2023/04/16 08:21:50;;;;;;;17.23;7.22;;;11.70;99.90;;;11.93;90.19;102365.00;5054787;28;20051;-70
2023/04/16 08:24:18;;;;;;;14.40;7.72;;;11.70;99.90;;;12.04;89.90;102368.69;5053936;28;20570;-71
2023/04/16 08:26:46;;;;;;;16.80;7.45;;;11.70;99.90;;;12.02;89.77;102371.31;5055138;28;20095;-70
2023/04/16 08:29:15;;;;;;;11.85;6.72;;;11.80;99.90;;;12.17;89.50;102376.84;5054879;28;20053;-69
2023/04/16 08:31:43;;;;;;;16.52;8.05;;;11.90;99.90;;;12.02;89.42;102375.75;5054791;28;20044;-70
2023/04/16 08:34:13;;;;;;;13.70;7.38;;;11.80;99.90;;;12.03;89.60;102383.72;5054607;28;20047;-70
2023/04/16 08:36:41;;;;;;;12.27;7.63;;;11.80;99.90;;;12.06;89.29;102372.28;5055282;28;20075;-70
2023/04/16 08:39:10;;;;;;;15.85;7.60;;;11.80;99.90;;;12.15;89.01;102369.72;5054544;28;20374;-70
2023/04/16 08:41:43;;;;;;;20.20;7.40;;;11.90;99.90;;;12.18;88.71;102372.41;5054608;28;20712;-71
2023/04/16 08:44:19;;;;;;;14.80;7.60;;;11.90;99.90;;;12.11;88.45;102379.41;5053669;28;20498;-71
2023/04/16 08:46:48;;;;;;;18.60;7.45;;;11.90;99.90;;;11.97;89.03;102373.03;5070144;28;20044;-69
2023/04/16 08:49:18;;;;;;;11.43;6.72;;;11.80;99.90;;;12.03;89.40;102380.16;5054640;28;20437;-70
2023/04/16 08:51:54;;;;;;;13.90;6.97;;;11.80;99.90;;;11.99;88.93;102375.69;5054578;28;20132;-74
2023/04/16 08:54:35;;;;;;;11.27;7.25;;;11.80;99.90;;;11.88;89.66;102378.19;5053684;28;20148;-70
2023/04/16 08:57:07;;;;;;;13.38;7.10;;;11.60;99.90;;;11.76;90.19;102375.38;5054593;28;20111;-75
2023/04/16 08:59:37;;;;;;;17.10;7.88;;;11.60;99.90;;;11.90;90.23;102386.16;5054900;28;20041;-73
2023/04/16 09:02:06;;;;;;;20.17;7.53;;;11.60;99.90;;;11.61;89.93;102357.41;5054274;28;20056;-74
2023/04/16 09:04:38;;;;;;;17.42;7.45;;;11.60;99.90;;;11.85;90.08;102374.59;5054418;28;20045;-74
2023/04/16 09:07:09;;;;;;;16.10;6.93;;;11.70;99.90;;;11.94;89.94;102395.97;5054192;28;20048;-73
2023/04/16 09:09:39;;;;;;;17.08;8.20;;;11.70;99.90;;;11.84;90.18;102391.38;5054076;28;20056;-71
2023/04/16 09:12:08;;;;;;;19.67;9.15;;;11.60;99.90;;;11.95;90.01;102388.00;5054409;28;20069;-70
2023/04/16 09:14:40;;;;;;;22.15;8.15;;;11.70;99.90;;;11.72;90.30;102395.63;5054551;28;20057;-71
2023/04/16 09:17:09;;;;;;;19.70;8.35;;;11.60;99.90;;;11.88;90.23;102395.88;5053884;28;20041;-69
2023/04/16 09:19:39;;;;;;;16.42;8.68;;;11.60;99.90;;;11.91;89.92;102399.44;5053631;28;20453;-69
2023/04/16 09:22:08;;;;;;;13.07;7.30;;;11.70;99.90;;;11.87;89.39;102391.41;5052847;28;20411;-68
2023/04/16 09:24:37;;;;;;;13.77;7.32;;;11.70;99.90;;;11.86;89.45;102400.25;5053688;28;20294;-68
2023/04/16 09:27:05;;;;;;;14.38;7.25;;;11.60;99.90;;;11.92;89.43;102398.59;5053645;28;20040;-68
2023/04/16 09:29:35;;;;;;;13.50;7.45;;;11.70;99.90;;;11.96;89.72;102413.69;5052266;28;20053;-70
2023/04/16 09:32:05;;;;;;;20.05;8.10;;;11.70;99.90;;;11.67;89.74;102372.59;5053691;28;20068;-70
2023/04/16 09:34:35;;;;;;;12.75;6.90;;;11.70;99.90;;;12.03;89.82;102415.53;5053896;28;20044;-70
2023/04/16 09:37:17;;;;;;;13.07;7.57;;;11.80;99.90;;;12.06;89.49;102410.25;5053624;28;20049;-70
2023/04/16 09:39:54;;;;;;;10.55;7.18;;;11.80;99.90;;;12.08;89.18;102412.97;5053483;28;20056;-70
2023/04/16 09:42:26;;;;;;;12.48;7.68;;;11.90;99.90;;;12.19;88.89;102421.97;5053675;28;20045;-69
2023/04/16 09:44:55;;;;;;;15.75;7.38;;;11.90;99.90;;;12.19;88.71;102430.81;5053753;28;20045;-70
2023/04/16 09:47:40;;;;;;;15.45;8.30;;;11.90;99.90;;;12.19;88.50;102424.59;5053379;28;20033;-73
2023/04/16 09:50:10;;;;;;;14.57;8.00;;;11.90;99.90;;;12.27;88.24;102431.78;5053435;28;20044;-72
2023/04/16 09:52:44;;;;;;;15.00;7.78;;;12.00;99.90;;;12.39;87.95;102433.72;5053588;28;20049;-72
2023/04/16 09:55:13;;;;;;;15.48;7.35;;;12.10;99.90;;;12.23;87.94;102429.09;5052275;28;20084;-70
2023/04/16 09:57:41;;;;;;;18.50;8.15;;;12.00;99.90;;;12.09;88.07;102434.19;5053351;28;20068;-70
2023/04/16 10:00:12;;;;;;;13.98;7.82;;;11.90;99.90;;;12.20;87.88;102432.59;5053234;28;20052;-71
2023/04/16 10:02:41;;;;;;;11.20;7.30;;;11.90;99.90;;;12.26;87.74;102437.97;5053593;28;20053;-70
2023/04/16 10:05:15;;;;;;;12.13;6.97;;;12.00;99.90;;;12.30;87.39;102430.94;5053538;28;20495;-70
2023/04/16 10:07:47;;;;;;;14.10;6.70;;;12.10;99.90;;;12.31;87.47;102438.06;5053219;28;20044;-69
2023/04/16 10:10:16;;;;;;;13.27;6.97;;;12.10;99.90;;;12.21;87.71;102441.44;5053248;28;20127;-69
2023/04/16 10:12:44;;;;;;;12.65;7.63;;;11.90;99.90;;;12.26;87.87;102440.63;5053150;28;20037;-68
2023/04/16 10:15:13;;;;;;;12.82;7.45;;;12.00;99.90;;;12.24;87.14;102439.72;5053086;28;20502;-71